AirNav   Air Wisconsin pilot careers
 
 1165 users online  

4CA0 LAPD Hooper Heliport
Los Angeles, California, USA

GOING TO LOS ANGELES?


FAA INFORMATION EFFECTIVE 03 JANUARY 2019

Location

FAA Identifier: 4CA0
Lat/Long: 34-02-38.4900N / 118-14-50.3700W
34-02.641500N / 118-14.839500W
34.0440250 / -118.2473250
(estimated)
Elevation: 302 ft. / 92 m (estimated)
Variation: 14E (1985)
From city: 1 mile SW of LOS ANGELES, CA
Time zone: UTC -8 (UTC -7 during Daylight Saving Time)
Zip code: 90014

Heliport Operations

Heliport use: Private use. Permission required prior to landing
Activation date: 01/1978
Control tower: no
ARTCC: LOS ANGELES CENTER
FSS: HAWTHORNE FLIGHT SERVICE STATION
Attendance: CONTINUOUS
Wind indicator: yes
Segmented circle: no

Heliport Communications

UNICOM: 123.075
WX ASOS at HHR (8 nm SW): PHONE 310-973-8930
WX AWOS-3PT at CPM (9 nm S): 127.150 (310-631-4958)
WX ASOS at LAX (10 nm SW): PHONE 310-568-1486
WX ASOS at SMO (10 nm W): PHONE 310-392-6453
WX AWOS-3PT at EMT (11 nm E): 118.75 ((626) 444-1107)
WX ASOS at BUR (11 nm NW): PHONE 818-841-1384
WX ASOS at LGB (14 nm S): PHONE 562-424-0572
WX AWOS-3PT at WHP (15 nm NW): 132.1 (818-899-9820)
WX ASOS at VNY (16 nm NW): PHONE 818-904-9213
WX ASOS at FUL (17 nm SE): PHONE 714-870-1372

Nearby radio navigation aids

VOR radial/distance  VOR name  Freq  Var
SMOr064/10.6SANTA MONICA VOR/DME110.8015E
LAXr039/11.3LOS ANGELES VORTAC113.6015E
VNYr117/16.2VAN NUYS VOR/DME113.1015E
SLIr313/18.3SEAL BEACH VORTAC115.7015E
POMr250/23.0POMONA VORTAC110.4015E
ELBr297/33.9EL TORO VOR/DME117.2014E
PMDr179/36.4PALMDALE VORTAC114.5015E
PDZr267/36.5PARADISE VORTAC112.2015E
FIMr106/36.6FILLMORE VORTAC112.5015E

 
NDB name  Hdg/Dist  Freq  Var  ID
EL MONTE241/11.135915EEMT . -- -

Heliport Services

Runway Information

Helipad H1

Dimensions: 205 x 105 ft. / 62 x 32 m
Surface: concrete
ROOFTOP.
Latitude: 34-02.641500N
Longitude: 118-14.839500W
Elevation: 302.0 ft.
Traffic pattern: leftleft

Heliport Ownership and Management from official FAA records

Ownership: Publicly-owned
Owner: CITY OF LOS ANGELES
555 RAMIREZ ST, SPACE 475
LOS ANGELES, CA 90012
Phone 213-485-2011
Manager: C.O.-AIR SUPPORT DIV-LAPD
150 N. LOS ANGELES STREET
LOS ANGELES, CA 90012
Phone 213-485-2600

Heliport Operational Statistics

Aircraft based on the field: 1
Helicopters: 1
    

Additional Remarks

RSTRD LNGD--POLICE BUSINESS ONLY. PHONE AIR SUPPORT DIV WATCH COMMANDER (213) 485-2600 PRIOR TO FLIGHT; THEN CTC KMB-7 ON 123.075 PRIOR TO LNDG AT HELIPORT.

Instrument Procedures

There are no published instrument procedures at 4CA0.

Some nearby airports with instrument procedures:

KHHR - Jack Northrop Field/Hawthorne Municipal Airport (8 nm SW)
KLAX - Los Angeles International Airport (10 nm SW)
KSMO - Santa Monica Municipal Airport (10 nm W)
KEMT - San Gabriel Valley Airport (11 nm E)
KBUR - Bob Hope Airport (11 nm NW)
KLGB - Long Beach Airport (Daugherty Field) (14 nm S)
KTOA - Zamperini Field Airport (15 nm S)
KWHP - Whiteman Airport (15 nm NW)
KVNY - Van Nuys Airport (16 nm NW)
KFUL - Fullerton Municipal Airport (17 nm SE)
 
Loc | Ops | Rwys | IFR | FBO | Links
Com | Nav | Svcs | Stats | Notes
Area around 4CA0 (LAPD Hooper Heliport)
 
Road maps at: MapQuest Bing Google
 
Aerial photo
No photo
 
Sectional chart

 
Airport distance calculator
Flying to LAPD Hooper Heliport? Find the distance to fly.

From to 4CA0

Sunrise and sunset
Times for 17-Jan-2019
 Local
(UTC-8)
 Zulu
(UTC)
Morning civil twilight06:3214:32
Sunrise06:5914:59
Sunset17:0801:08
Evening civil twilight17:3501:35

Current date and time
Zulu (UTC)  17-Jan-2019 22:44:48
Local (UTC-8)  17-Jan-2019 14:44:48
 
METAR
KCQT 172224Z AUTO 00000KT 10SM BKN010 BKN050 BKN070 16/15 A3013 RMK AO2 CIG 007V012 T01610150
KHHR 
9nm SW 
172223Z 28004KT 10SM SCT009 BKN050 16/15 A3013 RMK AO2 T01610150
KLAX 
9nm SW 
172223Z 26009KT 10SM FEW000 FEW050 OVC120 16/15 A3013 RMK AO2 FG FEW000 T01560150 $
KSMO 
10nm W 
172151Z 24004KT 10SM -RA BKN004 BKN050 OVC120 17/14 A3012 RMK AO2 RAE13B44 SLP200 P0000 T01720144
KBUR 
11nm NW 
172153Z 00000KT 10SM -RA SCT006 BKN023 OVC038 16/14 A3011 RMK AO2 RAB2055 SLP188 P0004 T01560139
KEMT 
12nm E 
172145Z 24006KT 10SM BKN 006OVC011 16/16 A3013
KLGB 
14nm S 
172202Z 22004KT 10SM FEW006 SCT012 BKN041 18/16 A3012 RMK AO2 T01780161
KWHP 
15nm NW 
172200Z 00000KT 9SM FEW008 SCT012 SCT049 15/15 A3015
KVNY 
16nm NW 
172151Z 26003KT 10SM FEW044 OVC110 17/13 A3011 RMK AO2 RAE16 SLP190 P0002 T01670133
KTOA 
16nm S 
172147Z 25008KT 10SM SCT016 OVC050 17/16 A3012
TAF
KLAX 
9nm SW 
172134Z 1722/1824 26009KT 6SM BCFG BR SCT004 OVC009 FM172300 24012KT 3SM -SHRA BKN012 OVC025 FM180300 27007KT P6SM SCT025 BKN050 FM181200 08004KT P6SM SCT040 FM181700 27006KT P6SM SCT040 FM182000 27012KT P6SM SCT040
KSMO 
10nm W 
172102Z 1721/1818 26005KT 1 1/2SM -RA BR BKN003 OVC019 FM172300 25008KT P6SM SCT025 BKN050 FM180300 27005KT P6SM SCT025 BKN040 FM181200 VRB03KT P6SM SCT040
KBUR 
11nm NW 
172108Z 1721/1818 19006KT 2SM -RA BR BKN008 BKN016 OVC021 FM172300 24004KT P6SM VCSH BKN012 FM180300 19010KT P6SM SCT015 OVC025 FM181200 08004KT P6SM SCT040
KLGB 
14nm S 
172107Z 1721/1818 24011G16KT 3SM BR OVC005 FM172300 24012KT P6SM VCSH BKN015 BKN050 FM180300 27005KT P6SM SCT025 BKN040 FM181200 08004KT P6SM SCT040
KVNY 
16nm NW 
171747Z 1718/1818 00000KT 2SM -RA BR BKN018 OVC025 FM171900 21006KT 5SM -SHRA SCT004 OVC018 FM172300 24004KT P6SM VCSH BKN018 FM180300 19010KT P6SM SCT015 OVC025 FM181200 08004KT P6SM SCT040
KSLI 
20nm SE 
172100Z 1721/1903 23006KT 4800 -SHRA OVC003 QNH3013INS TEMPO 1721/1724 23020G30KT 520009 BECMG 1723/1724 VRB06KT 4800 BR OVC005 510053 QNH3014INS BECMG 1805/1806 VRB06KT 0100 FG OVC005 QNH3019INS BECMG 1814/1815 VRB06KT 4800 BR OVC006 QNH3025INS BECMG 1820/1821 VRB06KT 8000 BR FEW013 QNH3024INS TX18/1722Z TN11/1814Z
NOTAMs
Click for the latest NOTAMs
NOTAMs are issued by the DoD/FAA and will open in a separate window not controlled by AirNav.

 

 
 

Would you like to see your business listed on this page?

 If your business provides an interesting product or service to pilots, flight crews, aircraft, or users of the LAPD Hooper Heliport, you should consider listing it here.  To start the listing process, click on the button below
 
Add a business
 

Other Pages about LAPD Hooper Heliport

Update a link
 
Copyright © AirNav, LLC. All rights reserved. Privacy Policy  Contact